sensor_id;sensor_type;location;lat;lon;timestamp;pressure;altitude;pressure_sealevel;temperature;humidity
49397;BME280;35615;41.410;2.194;2022-12-20T00:02:14;102538.03;;;18.15;58.64
49397;BME280;35615;41.410;2.194;2022-12-20T00:05:03;102526.78;;;18.17;58.45
49397;BME280;35615;41.410;2.194;2022-12-20T00:07:34;102531.03;;;18.14;58.45
49397;BME280;35615;41.410;2.194;2022-12-20T00:10:05;102531.91;;;18.14;58.41
49397;BME280;35615;41.410;2.194;2022-12-20T00:12:38;102525.75;;;18.12;58.38
49397;BME280;35615;41.410;2.194;2022-12-20T00:15:19;102524.75;;;18.09;58.56
49397;BME280;35615;41.410;2.194;2022-12-20T00:17:58;102515.28;;;18.12;58.33
49397;BME280;35615;41.410;2.194;2022-12-20T00:20:26;102515.13;;;18.08;58.41
49397;BME280;35615;41.410;2.194;2022-12-20T00:22:55;102511.50;;;18.04;58.52
49397;BME280;35615;41.410;2.194;2022-12-20T00:25:33;102517.53;;;18.02;58.60
49397;BME280;35615;41.410;2.194;2022-12-20T00:28:17;102510.47;;;17.99;58.63
49397;BME280;35615;41.410;2.194;2022-12-20T00:30:53;102511.25;;;17.96;58.54
49397;BME280;35615;41.410;2.194;2022-12-20T00:33:24;102500.59;;;17.92;58.56
49397;BME280;35615;41.410;2.194;2022-12-20T00:36:12;102498.19;;;17.96;58.68
49397;BME280;35615;41.410;2.194;2022-12-20T00:38:48;102495.63;;;17.98;58.59
49397;BME280;35615;41.410;2.194;2022-12-20T00:41:18;102492.06;;;17.96;58.55
49397;BME280;35615;41.410;2.194;2022-12-20T00:43:58;102495.63;;;17.98;58.47
49397;BME280;35615;41.410;2.194;2022-12-20T00:46:54;102490.38;;;17.98;58.32
49397;BME280;35615;41.410;2.194;2022-12-20T00:49:29;102492.06;;;17.96;58.28
49397;BME280;35615;41.410;2.194;2022-12-20T00:52:24;102486.75;;;17.94;58.31
49397;BME280;35615;41.410;2.194;2022-12-20T00:54:54;102482.22;;;17.89;58.50
49397;BME280;35615;41.410;2.194;2022-12-20T00:57:26;102489.22;;;17.90;58.46
49397;BME280;35615;41.410;2.194;2022-12-20T00:59:56;102489.94;;;17.86;58.49
49397;BME280;35615;41.410;2.194;2022-12-20T01:02:33;102489.81;;;17.83;58.49
49397;BME280;35615;41.410;2.194;2022-12-20T01:05:08;102487.19;;;17.83;58.25
49397;BME280;35615;41.410;2.194;2022-12-20T01:08:21;102487.16;;;17.81;58.44
49397;BME280;35615;41.410;2.194;2022-12-20T01:11:02;102486.22;;;17.79;58.60
49397;BME280;35615;41.410;2.194;2022-12-20T01:13:42;102493.25;;;17.82;58.63
49397;BME280;35615;41.410;2.194;2022-12-20T01:16:17;102490.53;;;17.79;58.66
49397;BME280;35615;41.410;2.194;2022-12-20T01:18:51;102480.97;;;17.79;58.75
49397;BME280;35615;41.410;2.194;2022-12-20T01:21:24;102473.19;;;17.81;58.55
49397;BME280;35615;41.410;2.194;2022-12-20T01:23:55;102481.66;;;17.74;58.87
49397;BME280;35615;41.410;2.194;2022-12-20T01:26:30;102477.25;;;17.73;58.83
49397;BME280;35615;41.410;2.194;2022-12-20T01:29:20;102480.88;;;17.76;58.77
49397;BME280;35615;41.410;2.194;2022-12-20T01:31:55;102471.78;;;17.66;59.22
49397;BME280;35615;41.410;2.194;2022-12-20T01:34:27;102473.63;;;17.69;58.93
49397;BME280;35615;41.410;2.194;2022-12-20T01:37:09;102476.16;;;17.67;59.06
49397;BME280;35615;41.410;2.194;2022-12-20T01:39:43;102470.88;;;17.66;59.00
49397;BME280;35615;41.410;2.194;2022-12-20T01:42:24;102481.88;;;17.57;59.00
49397;BME280;35615;41.410;2.194;2022-12-20T01:45:29;102478.22;;;17.52;59.39
49397;BME280;35615;41.410;2.194;2022-12-20T01:48:01;102470.50;;;17.55;59.20
49397;BME280;35615;41.410;2.194;2022-12-20T01:50:36;102477.94;;;17.45;59.54
49397;BME280;35615;41.410;2.194;2022-12-20T01:53:24;102471.81;;;17.44;59.40
49397;BME280;35615;41.410;2.194;2022-12-20T02:02:10;102464.47;;;17.34;59.45
49397;BME280;35615;41.410;2.194;2022-12-20T02:04:39;102468.75;;;17.32;59.33
49397;BME280;35615;41.410;2.194;2022-12-20T02:07:07;102465.19;;;17.30;59.49
49397;BME280;35615;41.410;2.194;2022-12-20T02:09:37;102463.38;;;17.29;59.37
49397;BME280;35615;41.410;2.194;2022-12-20T02:12:08;102464.47;;;17.34;59.34
49397;BME280;35615;41.410;2.194;2022-12-20T02:14:41;102461.75;;;17.31;59.41
49397;BME280;35615;41.410;2.194;2022-12-20T02:17:40;102448.63;;;17.29;59.19
49397;BME280;35615;41.410;2.194;2022-12-20T02:25:41;102444.16;;;17.27;59.41
49397;BME280;35615;41.410;2.194;2022-12-20T02:30:47;102444.16;;;17.27;59.44
49397;BME280;35615;41.410;2.194;2022-12-20T02:33:18;102441.44;;;17.24;59.39
49397;BME280;35615;41.410;2.194;2022-12-20T02:35:47;102437.09;;;17.24;59.16
49397;BME280;35615;41.410;2.194;2022-12-20T02:38:28;102441.31;;;17.21;59.27
49397;BME280;35615;41.410;2.194;2022-12-20T02:43:35;102440.38;;;17.19;59.37
49397;BME280;35615;41.410;2.194;2022-12-20T02:46:25;102432.56;;;17.19;59.23
49397;BME280;35615;41.410;2.194;2022-12-20T02:48:57;102421.84;;;17.12;59.44
49397;BME280;35615;41.410;2.194;2022-12-20T02:51:27;102422.69;;;17.11;59.41
49397;BME280;35615;41.410;2.194;2022-12-20T02:53:59;102423.56;;;17.12;59.58
49397;BME280;35615;41.410;2.194;2022-12-20T02:56:32;102416.56;;;17.11;59.42
49397;BME280;35615;41.410;2.194;2022-12-20T02:59:02;102419.97;;;17.08;59.42
49397;BME280;35615;41.410;2.194;2022-12-20T03:02:11;102414.66;;;17.07;59.56
49397;BME280;35615;41.410;2.194;2022-12-20T03:04:42;102411.06;;;17.03;59.86
49397;BME280;35615;41.410;2.194;2022-12-20T03:07:11;102414.41;;;16.99;59.61
49397;BME280;35615;41.410;2.194;2022-12-20T03:09:41;102406.63;;;17.01;59.73
49397;BME280;35615;41.410;2.194;2022-12-20T03:12:10;102409.16;;;16.99;59.79
49397;BME280;35615;41.410;2.194;2022-12-20T03:14:38;102409.94;;;16.97;59.60
49397;BME280;35615;41.410;2.194;2022-12-20T03:17:08;102412.56;;;16.97;59.70
49397;BME280;35615;41.410;2.194;2022-12-20T03:19:36;102406.19;;;16.90;59.93
49397;BME280;35615;41.410;2.194;2022-12-20T03:22:04;102408.66;;;16.86;60.03
49397;BME280;35615;41.410;2.194;2022-12-20T03:24:32;102406.72;;;16.81;60.16
49397;BME280;35615;41.410;2.194;2022-12-20T03:27:21;102404.94;;;16.80;60.24
49397;BME280;35615;41.410;2.194;2022-12-20T03:29:48;102406.66;;;16.80;60.08
49397;BME280;35615;41.410;2.194;2022-12-20T03:32:16;102405.84;;;16.81;60.09
49397;BME280;35615;41.410;2.194;2022-12-20T03:34:44;102397.91;;;16.78;60.22
49397;BME280;35615;41.410;2.194;2022-12-20T03:37:20;102395.28;;;16.78;60.07
49397;BME280;35615;41.410;2.194;2022-12-20T03:39:50;102390.91;;;16.77;60.24
49397;BME280;35615;41.410;2.194;2022-12-20T03:42:18;102393.50;;;16.77;60.16
49397;BME280;35615;41.410;2.194;2022-12-20T03:44:45;102388.34;;;16.78;59.98
49397;BME280;35615;41.410;2.194;2022-12-20T03:47:13;102393.44;;;16.75;60.18
49397;BME280;35615;41.410;2.194;2022-12-20T03:49:44;102389.81;;;16.72;60.31
49397;BME280;35615;41.410;2.194;2022-12-20T03:52:13;102383.59;;;16.68;60.64
49397;BME280;35615;41.410;2.194;2022-12-20T03:54:41;102380.78;;;16.64;60.23
49397;BME280;35615;41.410;2.194;2022-12-20T03:57:17;102389.34;;;16.61;60.77
49397;BME280;35615;41.410;2.194;2022-12-20T04:02:41;102392.94;;;16.63;60.63
49397;BME280;35615;41.410;2.194;2022-12-20T04:05:15;102394.56;;;16.61;60.64
49397;BME280;35615;41.410;2.194;2022-12-20T04:07:46;102384.91;;;16.59;60.64
49397;BME280;35615;41.410;2.194;2022-12-20T04:10:18;102386.53;;;16.55;60.62
49397;BME280;35615;41.410;2.194;2022-12-20T04:12:55;102387.53;;;16.59;60.67
49397;BME280;35615;41.410;2.194;2022-12-20T04:15:27;102386.69;;;16.60;60.73
49397;BME280;35615;41.410;2.194;2022-12-20T04:18:01;102390.84;;;16.54;60.75
49397;BME280;35615;41.410;2.194;2022-12-20T04:20:53;102380.34;;;16.53;61.10
49397;BME280;35615;41.410;2.194;2022-12-20T04:23:27;102386.41;;;16.52;61.05
49397;BME280;35615;41.410;2.194;2022-12-20T04:26:34;102390.69;;;16.51;61.09
49397;BME280;35615;41.410;2.194;2022-12-20T04:29:45;102388.88;;;16.49;60.93
49397;BME280;35615;41.410;2.194;2022-12-20T04:33:02;102391.41;;;16.47;60.73
49397;BME280;35615;41.410;2.194;2022-12-20T04:35:32;102386.91;;;16.43;60.95
49397;BME280;35615;41.410;2.194;2022-12-20T04:38:04;102384.38;;;16.45;60.85
49397;BME280;35615;41.410;2.194;2022-12-20T04:40:35;102383.22;;;16.38;60.90
49397;BME280;35615;41.410;2.194;2022-12-20T04:43:06;102385.81;;;16.38;60.76
49397;BME280;35615;41.410;2.194;2022-12-20T04:45:34;102392.72;;;16.36;61.10
49397;BME280;35615;41.410;2.194;2022-12-20T04:48:06;102383.94;;;16.34;60.96
49397;BME280;35615;41.410;2.194;2022-12-20T04:50:56;102385.00;;;16.39;60.99
49397;BME280;35615;41.410;2.194;2022-12-20T04:53:32;102388.25;;;16.34;60.84
49397;BME280;35615;41.410;2.194;2022-12-20T04:56:45;102384.50;;;16.27;60.72
49397;BME280;35615;41.410;2.194;2022-12-20T04:59:21;102377.50;;;16.26;60.96
49397;BME280;35615;41.410;2.194;2022-12-20T05:01:56;102380.13;;;16.26;60.97
49397;BME280;35615;41.410;2.194;2022-12-20T05:04:50;102388.16;;;16.31;60.84
49397;BME280;35615;41.410;2.194;2022-12-20T05:07:49;102384.56;;;16.28;60.27
49397;BME280;35615;41.410;2.194;2022-12-20T05:10:32;102385.28;;;16.24;60.79
49397;BME280;35615;41.410;2.194;2022-12-20T05:13:03;102376.44;;;16.21;60.71
49397;BME280;35615;41.410;2.194;2022-12-20T05:15:41;102372.91;;;16.19;60.71
49397;BME280;35615;41.410;2.194;2022-12-20T05:18:24;102365.19;;;16.22;60.57
49397;BME280;35615;41.410;2.194;2022-12-20T05:20:59;102361.41;;;16.15;60.73
49397;BME280;35615;41.410;2.194;2022-12-20T05:23:49;102360.59;;;16.16;60.70
49397;BME280;35615;41.410;2.194;2022-12-20T05:26:52;102354.31;;;16.11;60.66
49397;BME280;35615;41.410;2.194;2022-12-20T05:29:32;102355.22;;;16.12;60.63
49397;BME280;35615;41.410;2.194;2022-12-20T05:32:03;102358.69;;;16.12;60.83
49397;BME280;35615;41.410;2.194;2022-12-20T05:34:40;102357.81;;;16.12;60.68
49397;BME280;35615;41.410;2.194;2022-12-20T05:37:39;102361.31;;;16.12;60.54
49397;BME280;35615;41.410;2.194;2022-12-20T05:40:16;102357.88;;;16.13;60.43
49397;BME280;35615;41.410;2.194;2022-12-20T05:42:56;102356.94;;;16.11;60.28
49397;BME280;35615;41.410;2.194;2022-12-20T05:45:50;102358.59;;;16.09;60.41
49397;BME280;35615;41.410;2.194;2022-12-20T05:48:51;102364.53;;;16.07;60.27
49397;BME280;35615;41.410;2.194;2022-12-20T05:51:34;102364.41;;;16.04;60.35
49397;BME280;35615;41.410;2.194;2022-12-20T05:54:26;102355.53;;;15.98;60.42
49397;BME280;35615;41.410;2.194;2022-12-20T05:57:13;102360.97;;;16.05;60.33
49397;BME280;35615;41.410;2.194;2022-12-20T05:59:56;102355.66;;;16.02;60.30
49397;BME280;35615;41.410;2.194;2022-12-20T06:02:57;102362.31;;;15.95;60.33
49397;BME280;35615;41.410;2.194;2022-12-20T06:05:44;102369.50;;;16.01;60.30
49397;BME280;35615;41.410;2.194;2022-12-20T06:08:31;102355.53;;;15.98;59.99
49397;BME280;35615;41.410;2.194;2022-12-20T06:11:05;102355.59;;;16.00;60.00
49397;BME280;35615;41.410;2.194;2022-12-20T06:14:01;102347.06;;;16.04;59.92
49397;BME280;35615;41.410;2.194;2022-12-20T06:16:40;102353.03;;;16.02;60.21
49397;BME280;35615;41.410;2.194;2022-12-20T06:19:10;102351.16;;;15.97;60.02
49397;BME280;35615;41.410;2.194;2022-12-20T06:21:59;102356.47;;;16.01;59.91
49397;BME280;35615;41.410;2.194;2022-12-20T06:24:58;102356.16;;;15.93;59.99
49397;BME280;35615;41.410;2.194;2022-12-20T06:27:34;102349.28;;;15.95;60.27
49397;BME280;35615;41.410;2.194;2022-12-20T06:30:15;102343.06;;;15.91;60.18
49397;BME280;35615;41.410;2.194;2022-12-20T06:33:06;102341.47;;;15.95;60.36
49397;BME280;35615;41.410;2.194;2022-12-20T06:35:34;102344.66;;;15.88;60.39
49397;BME280;35615;41.410;2.194;2022-12-20T06:38:07;102350.00;;;15.91;60.19
49397;BME280;35615;41.410;2.194;2022-12-20T06:40:47;102335.34;;;15.94;60.70
49397;BME280;35615;41.410;2.194;2022-12-20T06:43:31;102345.50;;;15.87;61.33
49397;BME280;35615;41.410;2.194;2022-12-20T06:46:08;102343.88;;;15.90;60.93
49397;BME280;35615;41.410;2.194;2022-12-20T06:48:38;102357.63;;;15.86;60.39
49397;BME280;35615;41.410;2.194;2022-12-20T06:51:14;102357.69;;;15.88;60.54
49397;BME280;35615;41.410;2.194;2022-12-20T06:54:01;102356.81;;;15.87;60.60
49397;BME280;35615;41.410;2.194;2022-12-20T06:56:33;102355.09;;;15.88;60.41
49397;BME280;35615;41.410;2.194;2022-12-20T06:59:15;102347.19;;;15.86;60.43
49397;BME280;35615;41.410;2.194;2022-12-20T07:01:54;102357.75;;;15.89;60.55
49397;BME280;35615;41.410;2.194;2022-12-20T07:04:52;102359.59;;;15.92;60.33
49397;BME280;35615;41.410;2.194;2022-12-20T07:07:28;102361.47;;;15.96;60.21
49397;BME280;35615;41.410;2.194;2022-12-20T07:10:30;102358.88;;;15.96;60.18
49397;BME280;35615;41.410;2.194;2022-12-20T07:13:12;102357.94;;;15.94;60.87
49397;BME280;35615;41.410;2.194;2022-12-20T07:15:48;102352.72;;;15.94;60.42
49397;BME280;35615;41.410;2.194;2022-12-20T07:18:19;102359.69;;;15.95;60.05
49397;BME280;35615;41.410;2.194;2022-12-20T07:21:08;102348.44;;;15.96;60.53
49397;BME280;35615;41.410;2.194;2022-12-20T07:23:38;102349.22;;;15.93;60.49
49397;BME280;35615;41.410;2.194;2022-12-20T07:26:05;102347.72;;;15.98;60.40
49397;BME280;35615;41.410;2.194;2022-12-20T07:28:34;102348.53;;;15.97;60.22
49397;BME280;35615;41.410;2.194;2022-12-20T07:31:01;102353.75;;;15.97;60.31
49397;BME280;35615;41.410;2.194;2022-12-20T07:33:29;102354.38;;;15.92;60.50
49397;BME280;35615;41.410;2.194;2022-12-20T07:36:00;102356.41;;;15.99;60.56
49397;BME280;35615;41.410;2.194;2022-12-20T07:38:27;102354.81;;;16.03;60.31
49397;BME280;35615;41.410;2.194;2022-12-20T07:40:55;102354.88;;;16.04;60.20
49397;BME280;35615;41.410;2.194;2022-12-20T07:43:22;102354.06;;;16.05;60.10
49397;BME280;35615;41.410;2.194;2022-12-20T07:45:55;102346.16;;;16.04;59.98
49397;BME280;35615;41.410;2.194;2022-12-20T07:48:22;102346.50;;;16.11;59.98
49397;BME280;35615;41.410;2.194;2022-12-20T07:50:55;102351.66;;;16.10;59.99
49397;BME280;35615;41.410;2.194;2022-12-20T07:53:23;102347.44;;;16.13;59.85
49397;BME280;35615;41.410;2.194;2022-12-20T07:55:51;102345.84;;;16.17;59.81
49397;BME280;35615;41.410;2.194;2022-12-20T07:58:19;102352.66;;;16.13;59.58
49397;BME280;35615;41.410;2.194;2022-12-20T08:00:46;102344.13;;;16.17;59.43
49397;BME280;35615;41.410;2.194;2022-12-20T08:03:16;102345.28;;;16.24;59.78
49397;BME280;35615;41.410;2.194;2022-12-20T08:05:46;102348.72;;;16.23;59.57
49397;BME280;35615;41.410;2.194;2022-12-20T08:08:13;102354.09;;;16.27;59.41
49397;BME280;35615;41.410;2.194;2022-12-20T08:10:41;102346.41;;;16.31;59.29
49397;BME280;35615;41.410;2.194;2022-12-20T08:13:08;102337.16;;;16.39;59.51
49397;BME280;35615;41.410;2.194;2022-12-20T08:15:35;102337.34;;;16.43;59.43
49397;BME280;35615;41.410;2.194;2022-12-20T08:18:03;102336.63;;;16.47;59.34
49397;BME280;35615;41.410;2.194;2022-12-20T08:20:31;102339.56;;;16.55;59.13
49397;BME280;35615;41.410;2.194;2022-12-20T08:22:58;102344.31;;;16.65;58.67
49397;BME280;35615;41.410;2.194;2022-12-20T08:25:26;102339.34;;;16.71;58.51
49397;BME280;35615;41.410;2.194;2022-12-20T08:27:53;102339.59;;;16.77;58.83
49397;BME280;35615;41.410;2.194;2022-12-20T08:30:20;102335.59;;;16.87;58.30
49397;BME280;35615;41.410;2.194;2022-12-20T08:32:47;102341.72;;;16.88;58.29
49397;BME280;35615;41.410;2.194;2022-12-20T08:35:14;102344.44;;;16.91;58.44
49397;BME280;35615;41.410;2.194;2022-12-20T08:37:41;102339.50;;;16.98;57.99
49397;BME280;35615;41.410;2.194;2022-12-20T08:40:08;102338.88;;;17.05;57.64
49397;BME280;35615;41.410;2.194;2022-12-20T08:42:35;102336.28;;;17.05;57.28
49397;BME280;35615;41.410;2.194;2022-12-20T08:45:02;102345.06;;;17.07;57.13
49397;BME280;35615;41.410;2.194;2022-12-20T08:47:31;102347.59;;;17.06;57.18
49397;BME280;35615;41.410;2.194;2022-12-20T08:49:58;102340.78;;;17.09;57.26
49397;BME280;35615;41.410;2.194;2022-12-20T08:52:26;102335.72;;;17.14;57.23
49397;BME280;35615;41.410;2.194;2022-12-20T08:54:53;102341.28;;;17.23;57.00
49397;BME280;35615;41.410;2.194;2022-12-20T08:57:23;102347.75;;;17.33;56.85
49397;BME280;35615;41.410;2.194;2022-12-20T08:59:50;102333.44;;;17.47;56.71
49397;BME280;35615;41.410;2.194;2022-12-20T09:02:17;102337.50;;;17.63;56.47
49397;BME280;35615;41.410;2.194;2022-12-20T09:04:45;102335.91;;;17.68;55.46
49397;BME280;35615;41.410;2.194;2022-12-20T09:07:13;102345.78;;;17.75;55.41
49397;BME280;35615;41.410;2.194;2022-12-20T09:09:40;102336.41;;;17.82;54.99
49397;BME280;35615;41.410;2.194;2022-12-20T09:12:07;102341.38;;;17.99;54.78
49397;BME280;35615;41.410;2.194;2022-12-20T09:14:36;102335.84;;;18.17;54.53
49397;BME280;35615;41.410;2.194;2022-12-20T09:17:03;102336.69;;;18.43;54.74
49397;BME280;35615;41.410;2.194;2022-12-20T09:19:33;102347.09;;;18.69;54.09
49397;BME280;35615;41.410;2.194;2022-12-20T09:22:00;102330.38;;;18.94;53.24
49397;BME280;35615;41.410;2.194;2022-12-20T09:24:27;102327.50;;;19.16;52.35
49397;BME280;35615;41.410;2.194;2022-12-20T09:26:54;102329.22;;;19.45;51.61
49397;BME280;35615;41.410;2.194;2022-12-20T09:29:21;102330.78;;;19.70;50.57
49397;BME280;35615;41.410;2.194;2022-12-20T09:32:00;102325.41;;;20.00;49.56
49397;BME280;35615;41.410;2.194;2022-12-20T09:38:18;102323.78;;;20.81;47.85
49397;BME280;35615;41.410;2.194;2022-12-20T09:40:52;102319.38;;;21.22;47.25
49397;BME280;35615;41.410;2.194;2022-12-20T09:43:22;102318.06;;;21.44;46.67
49397;BME280;35615;41.410;2.194;2022-12-20T09:45:51;102321.09;;;21.65;45.94
49397;BME280;35615;41.410;2.194;2022-12-20T09:48:25;102317.97;;;21.88;45.33
49397;BME280;35615;41.410;2.194;2022-12-20T09:56:43;102312.75;;;22.47;45.08
49397;BME280;35615;41.410;2.194;2022-12-20T09:59:17;102311.06;;;22.50;46.49
49397;BME280;35615;41.410;2.194;2022-12-20T10:01:52;102320.28;;;21.24;49.60
49397;BME280;35615;41.410;2.194;2022-12-20T10:04:24;102316.59;;;22.08;48.71
49397;BME280;35615;41.410;2.194;2022-12-20T10:17:53;102313.44;;;22.32;49.35
49397;BME280;35615;41.410;2.194;2022-12-20T10:23:06;102300.16;;;22.86;47.46
49397;BME280;35615;41.410;2.194;2022-12-20T10:25:50;102303.41;;;22.07;49.22
49397;BME280;35615;41.410;2.194;2022-12-20T10:28:29;102300.44;;;21.90;49.59
49397;BME280;35615;41.410;2.194;2022-12-20T10:31:02;102303.28;;;22.61;48.38
49397;BME280;35615;41.410;2.194;2022-12-20T10:33:37;102292.31;;;22.93;47.82
49397;BME280;35615;41.410;2.194;2022-12-20T10:36:22;102288.84;;;22.31;48.38
49397;BME280;35615;41.410;2.194;2022-12-20T10:38:59;102291.13;;;22.71;48.07
49397;BME280;35615;41.410;2.194;2022-12-20T10:41:46;102279.22;;;22.99;47.30
49397;BME280;35615;41.410;2.194;2022-12-20T10:44:27;102266.81;;;23.76;45.87
49397;BME280;35615;41.410;2.194;2022-12-20T10:46:59;102276.13;;;22.64;47.53
49397;BME280;35615;41.410;2.194;2022-12-20T10:49:36;102266.00;;;23.85;45.90
49397;BME280;35615;41.410;2.194;2022-12-20T10:54:41;102265.78;;;25.11;42.81
49397;BME280;35615;41.410;2.194;2022-12-20T10:57:19;102248.91;;;24.80;42.98
49397;BME280;35615;41.410;2.194;2022-12-20T11:02:32;102247.97;;;24.63;42.72
49397;BME280;35615;41.410;2.194;2022-12-20T11:07:50;102236.72;;;25.51;41.67
49397;BME280;35615;41.410;2.194;2022-12-20T11:10:39;102231.41;;;25.11;41.81
49397;BME280;35615;41.410;2.194;2022-12-20T11:13:18;102227.00;;;25.33;41.14
49397;BME280;35615;41.410;2.194;2022-12-20T11:15:47;102235.84;;;25.84;40.42
49397;BME280;35615;41.410;2.194;2022-12-20T11:18:53;102237.53;;;26.14;39.14
49397;BME280;35615;41.410;2.194;2022-12-20T11:23:59;102216.69;;;27.29;36.95
49397;BME280;35615;41.410;2.194;2022-12-20T11:29:19;102189.63;;;26.75;36.86
49397;BME280;35615;41.410;2.194;2022-12-20T11:34:29;102186.72;;;27.15;34.85
49397;BME280;35615;41.410;2.194;2022-12-20T11:45:26;102167.97;;;28.21;33.70
49397;BME280;35615;41.410;2.194;2022-12-20T11:50:39;102178.41;;;26.09;36.10
49397;BME280;35615;41.410;2.194;2022-12-20T11:53:30;102165.81;;;26.60;35.87
49397;BME280;35615;41.410;2.194;2022-12-20T11:56:01;102167.34;;;27.05;34.98
49397;BME280;35615;41.410;2.194;2022-12-20T11:58:45;102163.31;;;27.60;34.43
49397;BME280;35615;41.410;2.194;2022-12-20T12:01:19;102151.25;;;27.28;34.72
49397;BME280;35615;41.410;2.194;2022-12-20T12:04:14;102156.34;;;26.07;37.40
49397;BME280;35615;41.410;2.194;2022-12-20T12:06:51;102139.22;;;27.83;34.91
49397;BME280;35615;41.410;2.194;2022-12-20T12:09:37;102148.09;;;27.80;34.95
49397;BME280;35615;41.410;2.194;2022-12-20T12:15:02;102140.41;;;26.19;38.23
49397;BME280;35615;41.410;2.194;2022-12-20T12:17:50;102126.78;;;26.86;37.11
49397;BME280;35615;41.410;2.194;2022-12-20T12:23:21;102119.34;;;25.86;39.13
49397;BME280;35615;41.410;2.194;2022-12-20T12:26:11;102123.81;;;24.86;41.35
49397;BME280;35615;41.410;2.194;2022-12-20T12:28:44;102122.81;;;24.33;42.56
49397;BME280;35615;41.410;2.194;2022-12-20T12:31:15;102117.31;;;23.89;43.64
49397;BME280;35615;41.410;2.194;2022-12-20T12:33:49;102109.53;;;24.24;43.38
49397;BME280;35615;41.410;2.194;2022-12-20T12:39:21;102106.53;;;23.53;44.96
49397;BME280;35615;41.410;2.194;2022-12-20T12:45:04;102093.84;;;24.85;42.54
49397;BME280;35615;41.410;2.194;2022-12-20T12:47:42;102090.31;;;24.80;42.39
49397;BME280;35615;41.410;2.194;2022-12-20T12:50:28;102092.97;;;24.97;42.23
49397;BME280;35615;41.410;2.194;2022-12-20T12:53:14;102080.56;;;24.43;43.27
49397;BME280;35615;41.410;2.194;2022-12-20T12:55:57;102077.94;;;25.48;41.30
49397;BME280;35615;41.410;2.194;2022-12-20T12:59:09;102065.69;;;25.16;42.13
49397;BME280;35615;41.410;2.194;2022-12-20T13:02:21;102068.28;;;24.87;42.50
49397;BME280;35615;41.410;2.194;2022-12-20T13:12:55;102053.50;;;23.08;46.09
49397;BME280;35615;41.410;2.194;2022-12-20T13:17:59;102044.28;;;23.90;43.73
49397;BME280;35615;41.410;2.194;2022-12-20T13:20:28;102029.94;;;23.36;45.06
49397;BME280;35615;41.410;2.194;2022-12-20T13:25:44;102032.56;;;23.34;44.74
49397;BME280;35615;41.410;2.194;2022-12-20T13:33:40;102025.91;;;24.19;42.02
49397;BME280;35615;41.410;2.194;2022-12-20T13:38:58;102022.50;;;24.61;41.60
49397;BME280;35615;41.410;2.194;2022-12-20T13:41:39;102021.50;;;24.25;41.54
49397;BME280;35615;41.410;2.194;2022-12-20T13:49:28;102021.38;;;23.80;42.03
49397;BME280;35615;41.410;2.194;2022-12-20T13:54:42;102016.09;;;23.81;41.11
49397;BME280;35615;41.410;2.194;2022-12-20T13:57:14;102009.69;;;23.33;41.79
49397;BME280;35615;41.410;2.194;2022-12-20T13:59:46;102013.28;;;22.32;43.62
49397;BME280;35615;41.410;2.194;2022-12-20T14:02:25;102007.25;;;22.44;43.27
49397;BME280;35615;41.410;2.194;2022-12-20T14:05:31;102000.63;;;22.02;44.08
49397;BME280;35615;41.410;2.194;2022-12-20T14:07:50;102002.66;;;21.52;45.15
49397;BME280;35615;41.410;2.194;2022-12-20T14:10:21;102011.84;;;22.71;43.08
49397;BME280;35615;41.410;2.194;2022-12-20T14:12:49;102006.94;;;22.15;43.87
49397;BME280;35615;41.410;2.194;2022-12-20T14:15:30;102013.22;;;22.27;43.30
49397;BME280;35615;41.410;2.194;2022-12-20T14:18:04;102016.03;;;22.47;43.26
49397;BME280;35615;41.410;2.194;2022-12-20T14:20:32;102008.69;;;22.16;43.47
49397;BME280;35615;41.410;2.194;2022-12-20T14:23:03;102007.03;;;22.22;43.45
49397;BME280;35615;41.410;2.194;2022-12-20T14:25:36;101994.84;;;22.30;43.47
49397;BME280;35615;41.410;2.194;2022-12-20T14:28:14;101991.44;;;22.45;42.97
49397;BME280;35615;41.410;2.194;2022-12-20T14:30:52;101998.03;;;21.32;45.19
49397;BME280;35615;41.410;2.194;2022-12-20T14:33:26;101995.13;;;21.17;46.02
49397;BME280;35615;41.410;2.194;2022-12-20T14:35:56;101985.66;;;20.71;46.50
49397;BME280;35615;41.410;2.194;2022-12-20T14:38:30;101981.28;;;21.27;45.63
49397;BME280;35615;41.410;2.194;2022-12-20T14:40:57;101987.53;;;20.78;47.09
49397;BME280;35615;41.410;2.194;2022-12-20T14:43:27;101984.75;;;20.69;47.42
49397;BME280;35615;41.410;2.194;2022-12-20T14:48:40;101992.13;;;20.93;47.21
49397;BME280;35615;41.410;2.194;2022-12-20T14:51:08;101990.09;;;20.25;48.92
49397;BME280;35615;41.410;2.194;2022-12-20T14:53:43;101994.72;;;20.89;47.29
49397;BME280;35615;41.410;2.194;2022-12-20T14:56:12;101993.84;;;20.39;48.52
49397;BME280;35615;41.410;2.194;2022-12-20T14:58:40;101995.50;;;20.33;48.88
49397;BME280;35615;41.410;2.194;2022-12-20T15:03:48;102009.75;;;20.45;49.07
49397;BME280;35615;41.410;2.194;2022-12-20T15:06:53;102011.72;;;19.68;51.08
49397;BME280;35615;41.410;2.194;2022-12-20T15:09:19;102007.88;;;19.14;52.01
49397;BME280;35615;41.410;2.194;2022-12-20T15:11:47;102005.13;;;19.87;50.98
49397;BME280;35615;41.410;2.194;2022-12-20T15:14:27;102010.38;;;19.88;50.83
49397;BME280;35615;41.410;2.194;2022-12-20T15:17:10;102008.66;;;19.90;50.61
49397;BME280;35615;41.410;2.194;2022-12-20T15:19:39;102001.44;;;20.24;49.47
49397;BME280;35615;41.410;2.194;2022-12-20T15:22:15;102002.47;;;19.85;50.52
49397;BME280;35615;41.410;2.194;2022-12-20T15:24:44;102004.97;;;19.40;51.78
49397;BME280;35615;41.410;2.194;2022-12-20T15:27:12;102003.22;;;19.80;51.24
49397;BME280;35615;41.410;2.194;2022-12-20T15:29:40;102005.03;;;19.43;52.03
49397;BME280;35615;41.410;2.194;2022-12-20T15:35:20;102000.59;;;19.01;53.26
49397;BME280;35615;41.410;2.194;2022-12-20T15:37:47;101996.00;;;19.29;52.61